Alpena County Regional Airport
KAPN : now visible

Airfield :











YOU CAN JOIN US ON...

 
LOGIN :

Register | Disclaimer

   EN    FR    IT 

 









Legend :    VFR   Marginal VFR   IFR   Intensive IFR   Very Intensive IFR
Visi :
Ceiling :
>= 8 km
>= 3000ft
5 to 8 km
1000 to 3000 ft
1500m to 5 km
500 to 1000 ft
800 to 1500m
200 to 500 ft
< 800m
< 200 ft
Symbols :   Thunderstorms  Fog  Heavy snow  Heavy precipitations  Wind > 20 kt






- Airport Elevation : 690 ft
- IATA code : APN


KAPN - Alpena County Regional

CURRENT METAR :
  • 260354Z AUTO 29004KT 10SM OVC007 02/01 A2971 RMK AO2 SLP066 T00170006

EXPIRED METARs :
  • 260310Z AUTO 31004KT 10SM OVC009 02/01 A2971 RMK AO2 T00220011
  • 260254Z AUTO 29003KT 10SM OVC010 02/01 A2971 RMK AO2 CIG 008V012 SLP069 T00220011 58003
  • 260215Z AUTO 31005KT 10SM FEW007 BKN010 OVC029 02/02 A2972 RMK AO2 T00220017
  • 260154Z AUTO 28003KT 8SM BKN005 OVC011 02/02 A2972 RMK AO2 CIG 004V010 SLP072 T00220017
  • 260135Z AUTO 00000KT 3SM BR OVC004 02/02 A2973 RMK AO2 VIS 3/4 RY 19 T00220017

TAF KAPN
Valid from the 26 at 04:00 until the 27 at 00:00 UTC


260406Z 2604/2624 30005KT P6SM VCSH BKN008 OVC015
FM261400 29009KT 2SM BR VCSH OVC008



MET'MAP, your aeronautical weather chart ! - Copyright ORBIFLY December 2007 - Disclaimer

ORBIFLY MET'MAP TEAM :

Programming & Development : Alexandra Zaïnal
Concept & original design : Baudouin d'Aumeries
Assistance for programming : Marc-Olivier Méhu
Technical & hardware support : Manuel Goepfert

Contact : metmap@orbifly.com




SOURCES & CREDITS :

   NOAA       Earth
Advisory